sensor_id;sensor_type;location;lat;lon;timestamp;temperature;humidity
75961;SHT30;64644;48.914;2.254;2023-10-08T00:00:46;19.45;69.17
75961;SHT30;64644;48.914;2.254;2023-10-08T00:03:14;19.47;69.08
75961;SHT30;64644;48.914;2.254;2023-10-08T00:05:41;19.47;69.06
75961;SHT30;64644;48.914;2.254;2023-10-08T00:08:07;19.45;69.05
75961;SHT30;64644;48.914;2.254;2023-10-08T00:10:37;19.44;68.98
75961;SHT30;64644;48.914;2.254;2023-10-08T00:13:05;19.45;68.97
75961;SHT30;64644;48.914;2.254;2023-10-08T00:15:33;19.41;68.98
75961;SHT30;64644;48.914;2.254;2023-10-08T00:18:03;19.44;68.98
75961;SHT30;64644;48.914;2.254;2023-10-08T00:20:32;19.47;69.07
75961;SHT30;64644;48.914;2.254;2023-10-08T00:23:08;19.41;69.08
75961;SHT30;64644;48.914;2.254;2023-10-08T00:25:35;19.42;69.07
75961;SHT30;64644;48.914;2.254;2023-10-08T00:28:08;19.41;69.02
75961;SHT30;64644;48.914;2.254;2023-10-08T00:30:40;19.36;69.04
75961;SHT30;64644;48.914;2.254;2023-10-08T00:33:07;19.36;69.12
75961;SHT30;64644;48.914;2.254;2023-10-08T00:35:39;19.34;69.11
75961;SHT30;64644;48.914;2.254;2023-10-08T00:38:09;19.35;69.13
75961;SHT30;64644;48.914;2.254;2023-10-08T00:40:42;19.34;69.17
75961;SHT30;64644;48.914;2.254;2023-10-08T00:43:31;19.35;69.21
75961;SHT30;64644;48.914;2.254;2023-10-08T00:46:02;19.34;69.22
75961;SHT30;64644;48.914;2.254;2023-10-08T00:48:29;19.34;69.25
75961;SHT30;64644;48.914;2.254;2023-10-08T00:51:02;19.31;69.31
75961;SHT30;64644;48.914;2.254;2023-10-08T00:53:49;19.31;69.33
75961;SHT30;64644;48.914;2.254;2023-10-08T00:56:18;19.31;69.39
75961;SHT30;64644;48.914;2.254;2023-10-08T00:58:45;19.27;69.39
75961;SHT30;64644;48.914;2.254;2023-10-08T01:01:18;19.27;69.39
75961;SHT30;64644;48.914;2.254;2023-10-08T01:03:46;19.27;69.41
75961;SHT30;64644;48.914;2.254;2023-10-08T01:06:12;19.25;69.41
75961;SHT30;64644;48.914;2.254;2023-10-08T01:08:37;19.23;69.46
75961;SHT30;64644;48.914;2.254;2023-10-08T01:11:20;19.24;69.54
75961;SHT30;64644;48.914;2.254;2023-10-08T01:14:04;19.21;69.53
75961;SHT30;64644;48.914;2.254;2023-10-08T01:16:32;19.18;69.57
75961;SHT30;64644;48.914;2.254;2023-10-08T01:18:59;19.17;69.60
75961;SHT30;64644;48.914;2.254;2023-10-08T01:21:28;19.15;69.59
75961;SHT30;64644;48.914;2.254;2023-10-08T01:24:03;19.13;69.61
75961;SHT30;64644;48.914;2.254;2023-10-08T01:26:35;19.11;69.60
75961;SHT30;64644;48.914;2.254;2023-10-08T01:29:04;19.10;69.67
75961;SHT30;64644;48.914;2.254;2023-10-08T01:31:31;19.10;69.64
75961;SHT30;64644;48.914;2.254;2023-10-08T01:33:57;19.06;69.65
75961;SHT30;64644;48.914;2.254;2023-10-08T01:36:24;19.08;69.75
75961;SHT30;64644;48.914;2.254;2023-10-08T01:38:51;19.04;69.86
75961;SHT30;64644;48.914;2.254;2023-10-08T01:41:17;19.03;69.85
75961;SHT30;64644;48.914;2.254;2023-10-08T01:43:46;18.99;69.78
75961;SHT30;64644;48.914;2.254;2023-10-08T01:46:12;18.96;69.70
75961;SHT30;64644;48.914;2.254;2023-10-08T01:48:38;19.00;69.63
75961;SHT30;64644;48.914;2.254;2023-10-08T01:51:05;18.97;69.57
75961;SHT30;64644;48.914;2.254;2023-10-08T01:53:37;18.97;69.55
75961;SHT30;64644;48.914;2.254;2023-10-08T01:56:03;18.96;69.51
75961;SHT30;64644;48.914;2.254;2023-10-08T01:58:29;18.97;69.46
75961;SHT30;64644;48.914;2.254;2023-10-08T02:00:55;18.97;69.45
75961;SHT30;64644;48.914;2.254;2023-10-08T02:03:25;18.93;69.49
75961;SHT30;64644;48.914;2.254;2023-10-08T02:05:52;18.93;69.45
75961;SHT30;64644;48.914;2.254;2023-10-08T02:08:19;18.95;69.45
75961;SHT30;64644;48.914;2.254;2023-10-08T02:10:44;18.90;69.51
75961;SHT30;64644;48.914;2.254;2023-10-08T02:13:13;18.87;69.48
75961;SHT30;64644;48.914;2.254;2023-10-08T02:15:49;18.82;69.55
75961;SHT30;64644;48.914;2.254;2023-10-08T02:18:18;18.80;69.59
75961;SHT30;64644;48.914;2.254;2023-10-08T02:20:44;18.80;69.69
75961;SHT30;64644;48.914;2.254;2023-10-08T02:23:10;18.79;69.79
75961;SHT30;64644;48.914;2.254;2023-10-08T02:25:39;18.75;69.73
75961;SHT30;64644;48.914;2.254;2023-10-08T02:28:06;18.73;69.80
75961;SHT30;64644;48.914;2.254;2023-10-08T02:30:34;18.68;69.83
75961;SHT30;64644;48.914;2.254;2023-10-08T02:32:59;18.66;69.78
75961;SHT30;64644;48.914;2.254;2023-10-08T02:35:25;18.66;69.81
75961;SHT30;64644;48.914;2.254;2023-10-08T02:37:50;18.65;69.81
75961;SHT30;64644;48.914;2.254;2023-10-08T02:40:17;18.61;69.83
75961;SHT30;64644;48.914;2.254;2023-10-08T02:42:52;18.62;69.90
75961;SHT30;64644;48.914;2.254;2023-10-08T02:45:26;18.56;69.87
75961;SHT30;64644;48.914;2.254;2023-10-08T02:47:52;18.62;69.88
75961;SHT30;64644;48.914;2.254;2023-10-08T02:50:19;18.58;69.84
75961;SHT30;64644;48.914;2.254;2023-10-08T02:52:44;18.53;69.87
75961;SHT30;64644;48.914;2.254;2023-10-08T02:55:10;18.53;69.86
75961;SHT30;64644;48.914;2.254;2023-10-08T02:57:48;18.52;69.88
75961;SHT30;64644;48.914;2.254;2023-10-08T03:00:16;18.49;69.85
75961;SHT30;64644;48.914;2.254;2023-10-08T03:02:41;18.49;69.94
75961;SHT30;64644;48.914;2.254;2023-10-08T03:05:07;18.45;70.02
75961;SHT30;64644;48.914;2.254;2023-10-08T03:07:33;18.47;69.97
75961;SHT30;64644;48.914;2.254;2023-10-08T03:10:01;18.45;69.96
75961;SHT30;64644;48.914;2.254;2023-10-08T03:12:34;18.41;69.88
75961;SHT30;64644;48.914;2.254;2023-10-08T03:15:00;18.35;69.93
75961;SHT30;64644;48.914;2.254;2023-10-08T03:17:44;18.37;69.98
75961;SHT30;64644;48.914;2.254;2023-10-08T03:20:18;18.35;69.99
75961;SHT30;64644;48.914;2.254;2023-10-08T03:22:54;18.35;69.98
75961;SHT30;64644;48.914;2.254;2023-10-08T03:25:22;18.35;70.00
75961;SHT30;64644;48.914;2.254;2023-10-08T03:27:49;18.35;69.96
75961;SHT30;64644;48.914;2.254;2023-10-08T03:30:15;18.37;69.98
75961;SHT30;64644;48.914;2.254;2023-10-08T03:32:43;18.35;69.99
75961;SHT30;64644;48.914;2.254;2023-10-08T03:35:21;18.35;69.96
75961;SHT30;64644;48.914;2.254;2023-10-08T03:37:53;18.33;69.95
75961;SHT30;64644;48.914;2.254;2023-10-08T03:40:19;18.34;69.96
75961;SHT30;64644;48.914;2.254;2023-10-08T03:42:57;18.31;69.97
75961;SHT30;64644;48.914;2.254;2023-10-08T03:45:22;18.30;70.03
75961;SHT30;64644;48.914;2.254;2023-10-08T03:48:06;18.31;70.08
75961;SHT30;64644;48.914;2.254;2023-10-08T03:50:35;18.30;70.01
75961;SHT30;64644;48.914;2.254;2023-10-08T03:53:09;18.28;69.92
75961;SHT30;64644;48.914;2.254;2023-10-08T03:55:40;18.25;69.91
75961;SHT30;64644;48.914;2.254;2023-10-08T03:58:07;18.24;69.96
75961;SHT30;64644;48.914;2.254;2023-10-08T04:00:37;18.20;69.99
75961;SHT30;64644;48.914;2.254;2023-10-08T04:03:06;18.20;70.09
75961;SHT30;64644;48.914;2.254;2023-10-08T04:05:37;18.14;70.03
75961;SHT30;64644;48.914;2.254;2023-10-08T04:08:21;18.13;70.11
75961;SHT30;64644;48.914;2.254;2023-10-08T04:11:05;18.08;70.19
75961;SHT30;64644;48.914;2.254;2023-10-08T04:13:34;18.07;70.33
75961;SHT30;64644;48.914;2.254;2023-10-08T04:16:00;18.10;70.36
75961;SHT30;64644;48.914;2.254;2023-10-08T04:18:26;18.11;70.34
75961;SHT30;64644;48.914;2.254;2023-10-08T04:20:52;18.13;70.42
75961;SHT30;64644;48.914;2.254;2023-10-08T04:23:30;18.11;70.32
75961;SHT30;64644;48.914;2.254;2023-10-08T04:25:55;18.11;70.30
75961;SHT30;64644;48.914;2.254;2023-10-08T04:28:22;18.06;70.27
75961;SHT30;64644;48.914;2.254;2023-10-08T04:30:51;18.07;70.30
75961;SHT30;64644;48.914;2.254;2023-10-08T04:33:17;18.07;70.25
75961;SHT30;64644;48.914;2.254;2023-10-08T04:35:45;18.03;70.28
75961;SHT30;64644;48.914;2.254;2023-10-08T04:38:24;18.01;70.30
75961;SHT30;64644;48.914;2.254;2023-10-08T04:40:54;18.03;70.31
75961;SHT30;64644;48.914;2.254;2023-10-08T04:43:21;18.01;70.30
75961;SHT30;64644;48.914;2.254;2023-10-08T04:45:57;18.03;70.36
75961;SHT30;64644;48.914;2.254;2023-10-08T04:48:26;18.06;70.39
75961;SHT30;64644;48.914;2.254;2023-10-08T04:50:57;18.04;70.36
75961;SHT30;64644;48.914;2.254;2023-10-08T04:53:30;18.04;70.40
75961;SHT30;64644;48.914;2.254;2023-10-08T04:56:07;18.03;70.48
75961;SHT30;64644;48.914;2.254;2023-10-08T04:58:39;18.04;70.48
75961;SHT30;64644;48.914;2.254;2023-10-08T05:01:07;18.03;70.48
75961;SHT30;64644;48.914;2.254;2023-10-08T05:03:52;18.03;70.53
75961;SHT30;64644;48.914;2.254;2023-10-08T05:06:30;17.97;70.52
75961;SHT30;64644;48.914;2.254;2023-10-08T05:11:36;17.97;70.47
75961;SHT30;64644;48.914;2.254;2023-10-08T05:14:12;17.96;70.43
75961;SHT30;64644;48.914;2.254;2023-10-08T05:16:56;17.96;70.47
75961;SHT30;64644;48.914;2.254;2023-10-08T05:19:41;17.94;70.50
75961;SHT30;64644;48.914;2.254;2023-10-08T05:22:10;17.93;70.53
75961;SHT30;64644;48.914;2.254;2023-10-08T05:24:49;17.94;70.51
75961;SHT30;64644;48.914;2.254;2023-10-08T05:27:41;17.94;70.55
75961;SHT30;64644;48.914;2.254;2023-10-08T05:30:16;17.93;70.54
75961;SHT30;64644;48.914;2.254;2023-10-08T05:32:50;17.91;70.56
75961;SHT30;64644;48.914;2.254;2023-10-08T05:35:40;17.87;70.54
75961;SHT30;64644;48.914;2.254;2023-10-08T05:38:19;17.86;70.64
75961;SHT30;64644;48.914;2.254;2023-10-08T05:41:00;17.85;70.60
75961;SHT30;64644;48.914;2.254;2023-10-08T05:43:36;17.86;70.64
75961;SHT30;64644;48.914;2.254;2023-10-08T05:48:53;17.85;70.63
75961;SHT30;64644;48.914;2.254;2023-10-08T05:51:44;17.86;70.48
75961;SHT30;64644;48.914;2.254;2023-10-08T05:54:17;17.86;70.41
75961;SHT30;64644;48.914;2.254;2023-10-08T05:56:56;17.83;70.42
75961;SHT30;64644;48.914;2.254;2023-10-08T05:59:50;17.80;70.39
75961;SHT30;64644;48.914;2.254;2023-10-08T06:02:23;17.80;70.41
75961;SHT30;64644;48.914;2.254;2023-10-08T06:05:12;17.79;70.45
75961;SHT30;64644;48.914;2.254;2023-10-08T06:10:19;17.76;70.46
75961;SHT30;64644;48.914;2.254;2023-10-08T06:15:39;17.73;70.56
75961;SHT30;64644;48.914;2.254;2023-10-08T06:18:21;17.76;70.52
75961;SHT30;64644;48.914;2.254;2023-10-08T06:21:00;17.75;70.54
75961;SHT30;64644;48.914;2.254;2023-10-08T06:23:27;17.76;70.46
75961;SHT30;64644;48.914;2.254;2023-10-08T06:25:54;17.78;70.38
75961;SHT30;64644;48.914;2.254;2023-10-08T06:28:44;17.78;70.34
75961;SHT30;64644;48.914;2.254;2023-10-08T06:31:10;17.79;70.30
75961;SHT30;64644;48.914;2.254;2023-10-08T06:33:42;17.79;70.32
75961;SHT30;64644;48.914;2.254;2023-10-08T06:36:08;17.78;70.40
75961;SHT30;64644;48.914;2.254;2023-10-08T06:38:37;17.73;70.42
75961;SHT30;64644;48.914;2.254;2023-10-08T06:41:04;17.72;70.46
75961;SHT30;64644;48.914;2.254;2023-10-08T06:43:40;17.69;70.50
75961;SHT30;64644;48.914;2.254;2023-10-08T06:46:10;17.68;70.63
75961;SHT30;64644;48.914;2.254;2023-10-08T06:48:38;17.63;70.63
75961;SHT30;64644;48.914;2.254;2023-10-08T06:51:07;17.63;70.70
75961;SHT30;64644;48.914;2.254;2023-10-08T06:53:45;17.56;70.73
75961;SHT30;64644;48.914;2.254;2023-10-08T06:56:11;17.45;70.73
75961;SHT30;64644;48.914;2.254;2023-10-08T06:58:38;17.44;70.88
75961;SHT30;64644;48.914;2.254;2023-10-08T07:01:03;17.38;71.00
75961;SHT30;64644;48.914;2.254;2023-10-08T07:03:34;17.37;71.05
75961;SHT30;64644;48.914;2.254;2023-10-08T07:06:01;17.31;71.16
75961;SHT30;64644;48.914;2.254;2023-10-08T07:08:32;17.31;71.34
75961;SHT30;64644;48.914;2.254;2023-10-08T07:10:59;17.30;71.40
75961;SHT30;64644;48.914;2.254;2023-10-08T07:13:26;17.28;71.55
75961;SHT30;64644;48.914;2.254;2023-10-08T07:15:55;17.30;71.58
75961;SHT30;64644;48.914;2.254;2023-10-08T07:18:21;17.30;71.63
75961;SHT30;64644;48.914;2.254;2023-10-08T07:20:51;17.38;71.62
75961;SHT30;64644;48.914;2.254;2023-10-08T07:23:22;17.46;71.64
75961;SHT30;64644;48.914;2.254;2023-10-08T07:26:01;17.54;71.51
75961;SHT30;64644;48.914;2.254;2023-10-08T07:28:42;17.59;71.47
75961;SHT30;64644;48.914;2.254;2023-10-08T07:31:34;17.66;71.32
75961;SHT30;64644;48.914;2.254;2023-10-08T07:34:01;17.71;71.31
75961;SHT30;64644;48.914;2.254;2023-10-08T07:36:42;17.76;71.26
75961;SHT30;64644;48.914;2.254;2023-10-08T07:39:07;17.80;71.13
75961;SHT30;64644;48.914;2.254;2023-10-08T07:41:34;17.85;71.04
75961;SHT30;64644;48.914;2.254;2023-10-08T07:44:00;17.87;71.06
75961;SHT30;64644;48.914;2.254;2023-10-08T07:46:26;17.90;70.99
75961;SHT30;64644;48.914;2.254;2023-10-08T07:48:55;17.87;70.91
75961;SHT30;64644;48.914;2.254;2023-10-08T07:51:20;17.87;71.10
75961;SHT30;64644;48.914;2.254;2023-10-08T07:53:52;17.99;71.07
75961;SHT30;64644;48.914;2.254;2023-10-08T07:56:24;18.01;71.03
75961;SHT30;64644;48.914;2.254;2023-10-08T07:58:53;18.08;71.18
75961;SHT30;64644;48.914;2.254;2023-10-08T08:01:23;18.11;71.12
75961;SHT30;64644;48.914;2.254;2023-10-08T08:03:50;18.18;71.26
75961;SHT30;64644;48.914;2.254;2023-10-08T08:06:16;18.21;71.21
75961;SHT30;64644;48.914;2.254;2023-10-08T08:08:42;18.28;71.01
75961;SHT30;64644;48.914;2.254;2023-10-08T08:11:09;18.31;71.10
75961;SHT30;64644;48.914;2.254;2023-10-08T08:13:39;18.40;71.10
75961;SHT30;64644;48.914;2.254;2023-10-08T08:16:04;18.44;71.05
75961;SHT30;64644;48.914;2.254;2023-10-08T08:18:52;18.47;71.24
75961;SHT30;64644;48.914;2.254;2023-10-08T08:21:20;18.51;71.06
75961;SHT30;64644;48.914;2.254;2023-10-08T08:23:49;18.55;71.12
75961;SHT30;64644;48.914;2.254;2023-10-08T08:26:24;18.63;71.53
75961;SHT30;64644;48.914;2.254;2023-10-08T08:28:56;18.68;71.94
75961;SHT30;64644;48.914;2.254;2023-10-08T08:31:23;18.70;72.00
75961;SHT30;64644;48.914;2.254;2023-10-08T08:33:50;18.77;71.65
75961;SHT30;64644;48.914;2.254;2023-10-08T08:36:19;18.83;71.69
75961;SHT30;64644;48.914;2.254;2023-10-08T08:38:46;18.89;71.60
75961;SHT30;64644;48.914;2.254;2023-10-08T08:41:12;18.93;71.47
75961;SHT30;64644;48.914;2.254;2023-10-08T08:43:39;19.00;71.60
75961;SHT30;64644;48.914;2.254;2023-10-08T08:46:10;19.04;71.59
75961;SHT30;64644;48.914;2.254;2023-10-08T08:48:42;19.08;71.47
75961;SHT30;64644;48.914;2.254;2023-10-08T08:51:09;19.13;71.50
75961;SHT30;64644;48.914;2.254;2023-10-08T08:53:38;19.20;71.23
75961;SHT30;64644;48.914;2.254;2023-10-08T08:56:06;19.27;71.02
75961;SHT30;64644;48.914;2.254;2023-10-08T08:58:33;19.31;70.80
75961;SHT30;64644;48.914;2.254;2023-10-08T09:01:00;19.36;70.69
75961;SHT30;64644;48.914;2.254;2023-10-08T09:03:25;19.41;70.80
75961;SHT30;64644;48.914;2.254;2023-10-08T09:05:56;19.47;71.01
75961;SHT30;64644;48.914;2.254;2023-10-08T09:08:22;19.55;71.25
75961;SHT30;64644;48.914;2.254;2023-10-08T09:10:49;19.59;71.34
75961;SHT30;64644;48.914;2.254;2023-10-08T09:13:22;19.65;71.21
75961;SHT30;64644;48.914;2.254;2023-10-08T09:15:51;19.72;70.93
75961;SHT30;64644;48.914;2.254;2023-10-08T09:18:16;19.75;70.90
75961;SHT30;64644;48.914;2.254;2023-10-08T09:20:43;19.80;70.84
75961;SHT30;64644;48.914;2.254;2023-10-08T09:23:13;19.86;70.98
75961;SHT30;64644;48.914;2.254;2023-10-08T09:25:44;19.92;70.48
75961;SHT30;64644;48.914;2.254;2023-10-08T09:28:10;19.97;69.79
75961;SHT30;64644;48.914;2.254;2023-10-08T09:30:38;20.03;69.97
75961;SHT30;64644;48.914;2.254;2023-10-08T09:33:06;20.09;70.23
75961;SHT30;64644;48.914;2.254;2023-10-08T09:35:31;20.13;69.89
75961;SHT30;64644;48.914;2.254;2023-10-08T09:37:58;20.18;69.68
75961;SHT30;64644;48.914;2.254;2023-10-08T09:40:24;20.24;69.91
75961;SHT30;64644;48.914;2.254;2023-10-08T09:42:51;20.27;70.14
75961;SHT30;64644;48.914;2.254;2023-10-08T09:45:17;20.32;70.08
75961;SHT30;64644;48.914;2.254;2023-10-08T09:47:49;20.39;69.87
75961;SHT30;64644;48.914;2.254;2023-10-08T09:50:30;20.47;69.82
75961;SHT30;64644;48.914;2.254;2023-10-08T09:55:33;20.56;68.99
75961;SHT30;64644;48.914;2.254;2023-10-08T09:57:59;20.66;68.40
75961;SHT30;64644;48.914;2.254;2023-10-08T10:00:26;20.73;68.44
75961;SHT30;64644;48.914;2.254;2023-10-08T10:02:58;20.82;68.09
75961;SHT30;64644;48.914;2.254;2023-10-08T10:05:29;20.89;67.75
75961;SHT30;64644;48.914;2.254;2023-10-08T10:07:55;20.97;67.65
75961;SHT30;64644;48.914;2.254;2023-10-08T10:10:29;21.03;67.62
75961;SHT30;64644;48.914;2.254;2023-10-08T10:13:00;21.11;67.57
75961;SHT30;64644;48.914;2.254;2023-10-08T10:15:27;21.15;67.66
75961;SHT30;64644;48.914;2.254;2023-10-08T10:18:05;21.20;67.45
75961;SHT30;64644;48.914;2.254;2023-10-08T10:20:33;21.24;67.49
75961;SHT30;64644;48.914;2.254;2023-10-08T10:22:59;21.28;67.15
75961;SHT30;64644;48.914;2.254;2023-10-08T10:25:34;21.34;67.09
75961;SHT30;64644;48.914;2.254;2023-10-08T10:30:29;21.45;66.77
75961;SHT30;64644;48.914;2.254;2023-10-08T10:32:55;21.45;66.76
75961;SHT30;64644;48.914;2.254;2023-10-08T10:35:25;21.51;66.81
75961;SHT30;64644;48.914;2.254;2023-10-08T10:37:53;21.53;66.67
75961;SHT30;64644;48.914;2.254;2023-10-08T10:40:21;21.58;66.45
75961;SHT30;64644;48.914;2.254;2023-10-08T10:42:57;21.63;65.95
75961;SHT30;64644;48.914;2.254;2023-10-08T10:45:23;21.67;65.62
75961;SHT30;64644;48.914;2.254;2023-10-08T10:48:04;21.78;65.33
75961;SHT30;64644;48.914;2.254;2023-10-08T10:50:41;21.80;65.20
75961;SHT30;64644;48.914;2.254;2023-10-08T10:53:40;21.87;64.61
75961;SHT30;64644;48.914;2.254;2023-10-08T10:56:32;21.96;64.67
75961;SHT30;64644;48.914;2.254;2023-10-08T10:59:04;22.04;64.58
75961;SHT30;64644;48.914;2.254;2023-10-08T11:01:44;22.08;64.62
75961;SHT30;64644;48.914;2.254;2023-10-08T11:04:12;22.10;64.85
75961;SHT30;64644;48.914;2.254;2023-10-08T11:06:43;22.14;64.59
75961;SHT30;64644;48.914;2.254;2023-10-08T11:09:10;22.17;63.95
75961;SHT30;64644;48.914;2.254;2023-10-08T11:11:40;22.15;63.76
75961;SHT30;64644;48.914;2.254;2023-10-08T11:14:12;22.13;64.15
75961;SHT30;64644;48.914;2.254;2023-10-08T11:16:47;22.13;64.19
75961;SHT30;64644;48.914;2.254;2023-10-08T11:19:13;22.11;64.39
75961;SHT30;64644;48.914;2.254;2023-10-08T11:21:51;22.14;64.11
75961;SHT30;64644;48.914;2.254;2023-10-08T11:24:31;22.14;64.34
75961;SHT30;64644;48.914;2.254;2023-10-08T11:27:01;22.14;64.49
75961;SHT30;64644;48.914;2.254;2023-10-08T11:29:47;22.15;64.35
75961;SHT30;64644;48.914;2.254;2023-10-08T11:32:14;22.21;64.19
75961;SHT30;64644;48.914;2.254;2023-10-08T11:34:47;22.25;64.51
75961;SHT30;64644;48.914;2.254;2023-10-08T11:37:27;22.38;64.30
75961;SHT30;64644;48.914;2.254;2023-10-08T11:39:55;22.47;64.17
75961;SHT30;64644;48.914;2.254;2023-10-08T11:42:24;22.58;64.25
75961;SHT30;64644;48.914;2.254;2023-10-08T11:45:06;22.68;64.03
75961;SHT30;64644;48.914;2.254;2023-10-08T11:47:45;22.80;64.08
75961;SHT30;64644;48.914;2.254;2023-10-08T11:50:11;22.82;63.76
75961;SHT30;64644;48.914;2.254;2023-10-08T11:52:42;22.86;64.10
75961;SHT30;64644;48.914;2.254;2023-10-08T11:55:08;22.87;64.18
75961;SHT30;64644;48.914;2.254;2023-10-08T11:57:34;22.92;64.16
75961;SHT30;64644;48.914;2.254;2023-10-08T12:00:13;22.93;63.39
75961;SHT30;64644;48.914;2.254;2023-10-08T12:02:48;22.94;63.59
75961;SHT30;64644;48.914;2.254;2023-10-08T12:05:20;23.02;63.70
75961;SHT30;64644;48.914;2.254;2023-10-08T12:07:50;23.03;63.72
75961;SHT30;64644;48.914;2.254;2023-10-08T12:10:23;23.07;63.53
75961;SHT30;64644;48.914;2.254;2023-10-08T12:12:53;23.13;63.77
75961;SHT30;64644;48.914;2.254;2023-10-08T12:15:20;23.15;63.74
75961;SHT30;64644;48.914;2.254;2023-10-08T12:17:47;23.21;63.52
75961;SHT30;64644;48.914;2.254;2023-10-08T12:20:33;23.24;63.30
75961;SHT30;64644;48.914;2.254;2023-10-08T12:23:00;23.28;63.46
75961;SHT30;64644;48.914;2.254;2023-10-08T12:25:25;23.31;62.92
75961;SHT30;64644;48.914;2.254;2023-10-08T12:27:50;23.39;62.66
75961;SHT30;64644;48.914;2.254;2023-10-08T12:30:16;23.41;62.53
75961;SHT30;64644;48.914;2.254;2023-10-08T12:32:42;23.42;62.54
75961;SHT30;64644;48.914;2.254;2023-10-08T12:35:10;23.49;62.31
75961;SHT30;64644;48.914;2.254;2023-10-08T12:37:40;23.45;62.19
75961;SHT30;64644;48.914;2.254;2023-10-08T12:40:06;23.45;62.16
75961;SHT30;64644;48.914;2.254;2023-10-08T12:42:51;23.45;62.17
75961;SHT30;64644;48.914;2.254;2023-10-08T12:45:17;23.48;62.17
75961;SHT30;64644;48.914;2.254;2023-10-08T12:47:47;23.47;62.08
75961;SHT30;64644;48.914;2.254;2023-10-08T12:50:14;23.48;62.04
75961;SHT30;64644;48.914;2.254;2023-10-08T12:52:44;23.45;61.84
75961;SHT30;64644;48.914;2.254;2023-10-08T12:55:24;23.42;62.08
75961;SHT30;64644;48.914;2.254;2023-10-08T12:57:52;23.41;61.97
75961;SHT30;64644;48.914;2.254;2023-10-08T13:00:22;23.41;62.06
75961;SHT30;64644;48.914;2.254;2023-10-08T13:02:49;23.37;61.89
75961;SHT30;64644;48.914;2.254;2023-10-08T13:05:21;23.38;62.08
75961;SHT30;64644;48.914;2.254;2023-10-08T13:07:54;23.39;62.24
75961;SHT30;64644;48.914;2.254;2023-10-08T13:10:21;23.41;62.07
75961;SHT30;64644;48.914;2.254;2023-10-08T13:12:47;23.42;63.09
75961;SHT30;64644;48.914;2.254;2023-10-08T13:15:13;23.65;60.65
75961;SHT30;64644;48.914;2.254;2023-10-08T13:17:38;23.93;59.20
75961;SHT30;64644;48.914;2.254;2023-10-08T13:20:09;24.16;59.69
75961;SHT30;64644;48.914;2.254;2023-10-08T13:22:37;24.32;59.46
75961;SHT30;64644;48.914;2.254;2023-10-08T13:25:02;24.49;59.30
75961;SHT30;64644;48.914;2.254;2023-10-08T13:27:30;24.62;58.88
75961;SHT30;64644;48.914;2.254;2023-10-08T13:29:55;24.76;58.86
75961;SHT30;64644;48.914;2.254;2023-10-08T13:32:20;24.84;58.03
75961;SHT30;64644;48.914;2.254;2023-10-08T13:34:46;24.94;57.77
75961;SHT30;64644;48.914;2.254;2023-10-08T13:37:11;25.04;57.47
75961;SHT30;64644;48.914;2.254;2023-10-08T13:39:36;25.10;58.45
75961;SHT30;64644;48.914;2.254;2023-10-08T13:42:05;25.16;57.99
75961;SHT30;64644;48.914;2.254;2023-10-08T13:44:32;25.20;57.68
75961;SHT30;64644;48.914;2.254;2023-10-08T13:46:58;25.27;57.06
75961;SHT30;64644;48.914;2.254;2023-10-08T13:49:25;25.38;56.56
75961;SHT30;64644;48.914;2.254;2023-10-08T13:51:54;25.38;56.24
75961;SHT30;64644;48.914;2.254;2023-10-08T13:54:22;25.38;56.26
75961;SHT30;64644;48.914;2.254;2023-10-08T13:56:51;25.39;56.84
75961;SHT30;64644;48.914;2.254;2023-10-08T13:59:16;25.44;55.94
75961;SHT30;64644;48.914;2.254;2023-10-08T14:01:45;25.45;55.09
75961;SHT30;64644;48.914;2.254;2023-10-08T14:04:17;25.48;56.05
75961;SHT30;64644;48.914;2.254;2023-10-08T14:06:45;25.44;55.84
75961;SHT30;64644;48.914;2.254;2023-10-08T14:09:17;25.41;56.05
75961;SHT30;64644;48.914;2.254;2023-10-08T14:11:48;25.38;56.62
75961;SHT30;64644;48.914;2.254;2023-10-08T14:14:15;25.41;56.59
75961;SHT30;64644;48.914;2.254;2023-10-08T14:16:43;25.38;56.27
75961;SHT30;64644;48.914;2.254;2023-10-08T14:19:12;25.35;56.41
75961;SHT30;64644;48.914;2.254;2023-10-08T14:21:39;25.35;56.27
75961;SHT30;64644;48.914;2.254;2023-10-08T14:24:16;25.34;54.95
75961;SHT30;64644;48.914;2.254;2023-10-08T14:26:42;25.30;54.94
75961;SHT30;64644;48.914;2.254;2023-10-08T14:29:08;25.30;54.93
75961;SHT30;64644;48.914;2.254;2023-10-08T14:31:36;25.25;55.57
75961;SHT30;64644;48.914;2.254;2023-10-08T14:34:04;25.25;55.61
75961;SHT30;64644;48.914;2.254;2023-10-08T14:39:29;25.14;56.02
75961;SHT30;64644;48.914;2.254;2023-10-08T14:42:14;25.08;55.63
75961;SHT30;64644;48.914;2.254;2023-10-08T14:44:58;25.06;55.65
75961;SHT30;64644;48.914;2.254;2023-10-08T14:47:23;25.00;55.41
75961;SHT30;64644;48.914;2.254;2023-10-08T14:49:49;25.00;55.30
75961;SHT30;64644;48.914;2.254;2023-10-08T14:52:15;24.99;55.30
75961;SHT30;64644;48.914;2.254;2023-10-08T14:54:42;24.97;54.84
75961;SHT30;64644;48.914;2.254;2023-10-08T14:57:08;24.94;55.36
75961;SHT30;64644;48.914;2.254;2023-10-08T14:59:35;24.89;55.11
75961;SHT30;64644;48.914;2.254;2023-10-08T15:02:00;24.84;55.24
75961;SHT30;64644;48.914;2.254;2023-10-08T15:04:26;24.83;55.68
75961;SHT30;64644;48.914;2.254;2023-10-08T15:06:54;24.79;55.55
75961;SHT30;64644;48.914;2.254;2023-10-08T15:09:20;24.76;55.47
75961;SHT30;64644;48.914;2.254;2023-10-08T15:11:50;24.73;55.33
75961;SHT30;64644;48.914;2.254;2023-10-08T15:14:17;24.71;55.59
75961;SHT30;64644;48.914;2.254;2023-10-08T15:16:44;24.71;55.78
75961;SHT30;64644;48.914;2.254;2023-10-08T15:19:11;24.68;55.60
75961;SHT30;64644;48.914;2.254;2023-10-08T15:21:37;24.65;56.04
75961;SHT30;64644;48.914;2.254;2023-10-08T15:24:07;24.58;56.01
75961;SHT30;64644;48.914;2.254;2023-10-08T15:26:38;24.56;56.07
75961;SHT30;64644;48.914;2.254;2023-10-08T15:29:04;24.51;56.26
75961;SHT30;64644;48.914;2.254;2023-10-08T15:31:30;24.47;56.10
75961;SHT30;64644;48.914;2.254;2023-10-08T15:33:55;24.45;56.32
75961;SHT30;64644;48.914;2.254;2023-10-08T15:36:21;24.41;56.54
75961;SHT30;64644;48.914;2.254;2023-10-08T15:38:47;24.39;56.40
75961;SHT30;64644;48.914;2.254;2023-10-08T15:41:12;24.35;56.27
75961;SHT30;64644;48.914;2.254;2023-10-08T15:43:39;24.32;56.39
75961;SHT30;64644;48.914;2.254;2023-10-08T15:46:05;24.29;56.66
75961;SHT30;64644;48.914;2.254;2023-10-08T15:48:31;24.24;56.12
75961;SHT30;64644;48.914;2.254;2023-10-08T15:50:57;24.22;56.92
75961;SHT30;64644;48.914;2.254;2023-10-08T15:53:22;24.20;57.04
75961;SHT30;64644;48.914;2.254;2023-10-08T15:55:48;24.17;57.07
75961;SHT30;64644;48.914;2.254;2023-10-08T15:58:13;24.14;56.75
75961;SHT30;64644;48.914;2.254;2023-10-08T16:00:38;24.13;56.55
75961;SHT30;64644;48.914;2.254;2023-10-08T16:03:04;24.07;56.91
75961;SHT30;64644;48.914;2.254;2023-10-08T16:05:31;24.07;56.94
75961;SHT30;64644;48.914;2.254;2023-10-08T16:07:57;24.04;57.25